Time;durP1;ratioP1;P1;durP2;ratioP2;P2;SDS_P1;SDS_P2;PMS_P1;PMS_P2;Temp;Humidity;BMP_temperature;BMP_pressure;BME280_temperature;BME280_humidity;BME280_pressure;Samples;Min_cycle;Max_cycle;Signal;HPM_P1;HPM_P2
2022/01/25 00:26:36;;;;;;;57.17;24.35;;;4.20;99.90;;;;;;5125152;27;20162;-82
2022/01/25 00:29:10;;;;;;;53.25;24.48;;;4.20;99.90;;;;;;5126277;27;20072;-82
2022/01/25 00:31:39;;;;;;;51.60;22.90;;;4.30;99.90;;;;;;5116795;27;20055;-82
2022/01/25 00:34:06;;;;;;;51.70;23.45;;;4.30;99.90;;;;;;5117206;27;20127;-82
2022/01/25 00:36:32;;;;;;;52.60;23.25;;;4.30;99.90;;;;;;5125313;27;20043;-80
2022/01/25 00:38:58;;;;;;;51.17;22.92;;;4.30;99.90;;;;;;5126960;27;20043;-80
2022/01/25 00:41:24;;;;;;;;;;;4.30;99.90;;;;;;5120531;27;20075;-80
2022/01/25 00:43:50;;;;;;;53.25;23.95;;;4.30;99.90;;;;;;5121328;27;19915;-80
2022/01/25 00:46:19;;;;;;;52.90;23.52;;;4.30;99.90;;;;;;5123382;27;20575;-82
2022/01/25 00:48:49;;;;;;;53.15;22.88;;;4.30;99.90;;;;;;5119627;27;20032;-82
2022/01/25 00:53:56;;;;;;;53.78;23.30;;;4.30;99.90;;;;;;5124394;27;20047;-80
2022/01/25 00:56:22;;;;;;;54.45;24.13;;;4.30;99.90;;;;;;5124543;27;20039;-80
2022/01/25 00:58:49;;;;;;;55.42;24.98;;;4.30;99.90;;;;;;5107261;27;20059;-80
2022/01/25 01:01:15;;;;;;;55.75;23.50;;;4.20;99.90;;;;;;5113666;27;20043;-80
2022/01/25 01:03:41;;;;;;;52.83;23.27;;;4.20;99.90;;;;;;5105071;27;20031;-81
2022/01/25 01:06:06;;;;;;;56.00;24.60;;;4.30;99.90;;;;;;5123120;27;20560;-80
2022/01/25 01:08:33;;;;;;;53.05;23.88;;;4.30;99.90;;;;;;5117847;27;20368;-80
2022/01/25 01:11:02;;;;;;;53.28;23.25;;;4.20;99.90;;;;;;5118484;27;20127;-81
2022/01/25 01:16:33;;;;;;;55.38;23.27;;;4.30;99.90;;;;;;5116376;27;20031;-80
2022/01/25 01:30:15;;;;;;;50.95;24.05;;;4.30;99.90;;;;;;5118096;27;20430;-80
2022/01/25 01:38:04;;;;;;;54.53;24.38;;;4.30;99.90;;;;;;5122410;27;20043;-80
2022/01/25 01:43:32;;;;;;;57.50;25.38;;;4.30;99.90;;;;;;5126539;27;20440;-80
2022/01/25 01:46:30;;;;;;;55.67;24.63;;;4.30;99.90;;;;;;5126879;27;20051;-81
2022/01/25 01:51:18;;;;;;;56.85;24.33;;;4.20;99.90;;;;;;5116589;27;20101;-80
2022/01/25 01:53:45;;;;;;;57.55;24.60;;;4.20;99.90;;;;;;5122772;27;20035;-80
2022/01/25 01:56:12;;;;;;;52.85;23.92;;;4.20;99.90;;;;;;5124454;27;20058;-80
2022/01/25 01:58:38;;;;;;;;;;;4.20;99.90;;;;;;5116273;27;20516;-81
2022/01/25 02:01:08;;;;;;;57.65;24.60;;;4.20;99.90;;;;;;5105535;27;19919;-81
2022/01/25 02:03:34;;;;;;;53.38;24.00;;;4.10;99.90;;;;;;5119251;27;20067;-81
2022/01/25 02:06:00;;;;;;;57.03;24.15;;;4.30;99.90;;;;;;5120451;27;20035;-81
2022/01/25 02:08:26;;;;;;;51.42;22.10;;;4.20;99.90;;;;;;5122729;27;20080;-81
2022/01/25 02:10:52;;;;;;;48.95;22.13;;;4.30;99.90;;;;;;5120540;27;20039;-81
2022/01/25 02:13:17;;;;;;;55.50;23.23;;;4.20;99.90;;;;;;5113446;27;20041;-81
2022/01/25 02:15:48;;;;;;;54.28;23.42;;;4.30;99.90;;;;;;5120509;27;20043;-80
2022/01/25 02:23:41;;;;;;;59.35;24.27;;;4.20;99.90;;;;;;5116659;27;20050;-81
2022/01/25 02:26:08;;;;;;;58.25;24.30;;;4.70;99.90;;;;;;5118821;28;20114;-81
2022/01/25 02:28:37;;;;;;;54.63;23.95;;;4.20;99.90;;;;;;5121614;28;20100;-81
2022/01/25 02:31:04;;;;;;;55.97;23.80;;;4.40;99.90;;;;;;5099922;28;20048;-80
2022/01/25 02:33:30;;;;;;;53.92;23.05;;;4.20;99.90;;;;;;5119062;28;20136;-81
2022/01/25 02:35:58;;;;;;;54.38;23.98;;;4.30;99.90;;;;;;5117325;28;21592;-81
2022/01/25 02:38:27;;;;;;;58.00;24.15;;;4.20;99.90;;;;;;5118287;28;20656;-81
2022/01/25 02:40:54;;;;;;;54.88;23.65;;;4.60;99.90;;;;;;5118806;28;20405;-81
2022/01/25 02:43:21;;;;;;;58.05;23.20;;;4.30;99.90;;;;;;5124967;28;20698;-81
2022/01/25 02:46:05;;;;;;;53.45;22.58;;;4.20;99.90;;;;;;5119034;28;20043;-81
2022/01/25 02:48:31;;;;;;;53.88;23.25;;;4.30;99.90;;;;;;5121902;28;20295;-80
2022/01/25 02:51:01;;;;;;;58.45;25.90;;;4.30;99.90;;;;;;5119045;28;20070;-81
2022/01/25 02:53:28;;;;;;;58.28;24.40;;;4.20;99.90;;;;;;5108676;28;20031;-81
2022/01/25 02:55:55;;;;;;;55.20;23.98;;;4.20;99.90;;;;;;5117841;27;20043;-81
2022/01/25 02:58:20;;;;;;;;;;;4.20;99.90;;;;;;5128489;27;20114;-81
2022/01/25 03:00:46;;;;;;;55.67;24.13;;;4.20;99.90;;;;;;5120108;27;20002;-80
2022/01/25 03:03:12;;;;;;;58.10;26.23;;;4.20;99.90;;;;;;5121095;27;20482;-81
2022/01/25 03:05:38;;;;;;;57.35;24.90;;;4.10;99.90;;;;;;5108009;27;20119;-81
2022/01/25 03:08:04;;;;;;;58.45;25.83;;;4.10;99.90;;;;;;5124695;27;20046;-81
2022/01/25 03:10:39;;;;;;;61.65;25.45;;;4.10;99.90;;;;;;5124269;27;20039;-81
2022/01/25 03:13:08;;;;;;;61.85;26.17;;;4.30;99.90;;;;;;5106787;27;20039;-81
2022/01/25 03:21:21;;;;;;;60.20;25.77;;;4.30;99.90;;;;;;5127871;27;20070;-81
2022/01/25 03:23:49;;;;;;;57.95;25.15;;;4.20;99.90;;;;;;5124945;27;20035;-81
2022/01/25 03:26:16;;;;;;;62.03;25.27;;;4.10;99.90;;;;;;5123838;27;20031;-81
2022/01/25 03:28:42;;;;;;;56.75;25.50;;;4.10;99.90;;;;;;5121116;27;20043;-81
2022/01/25 03:31:08;;;;;;;58.40;25.67;;;4.10;99.90;;;;;;5120961;27;20043;-81
2022/01/25 03:33:33;;;;;;;56.28;25.77;;;4.10;99.90;;;;;;5116560;27;20051;-81
2022/01/25 03:35:59;;;;;;;55.28;25.35;;;4.70;99.90;;;;;;5120634;27;20440;-81
2022/01/25 03:38:25;;;;;;;59.42;26.40;;;4.20;99.90;;;;;;5128546;27;20395;-81
2022/01/25 03:40:50;;;;;;;65.32;26.88;;;4.10;99.90;;;;;;5124422;27;20153;-81
2022/01/25 03:43:18;;;;;;;55.80;24.03;;;4.20;99.90;;;;;;5128672;27;20038;-81
2022/01/25 03:45:57;;;;;;;59.67;25.58;;;4.10;99.90;;;;;;5120747;27;20321;-81
2022/01/25 03:50:51;;;;;;;60.92;27.08;;;4.30;99.90;;;;;;5120108;27;20118;-82
2022/01/25 03:53:19;;;;;;;59.25;26.63;;;4.60;99.90;;;;;;5122105;27;20181;-81
2022/01/25 03:55:46;;;;;;;62.75;26.88;;;4.60;99.90;;;;;;5113485;27;20122;-81
2022/01/25 03:58:12;;;;;;;59.45;26.45;;;4.10;99.90;;;;;;5123166;27;20646;-81
2022/01/25 04:00:39;;;;;;;57.33;25.63;;;4.10;99.90;;;;;;5125648;27;20030;-81
2022/01/25 04:03:27;;;;;;;58.83;25.40;;;4.10;99.90;;;;;;5122880;27;20038;-81
2022/01/25 04:05:53;;;;;;;;;;;4.10;99.90;;;;;;5128224;27;20039;-81
2022/01/25 04:08:20;;;;;;;60.03;26.80;;;4.10;99.90;;;;;;5117315;27;19922;-82
2022/01/25 04:10:46;;;;;;;60.38;26.85;;;4.20;99.90;;;;;;5121093;27;20519;-82
2022/01/25 04:13:12;;;;;;;64.32;29.08;;;4.10;99.90;;;;;;5108381;27;20042;-81
2022/01/25 04:15:41;;;;;;;60.42;27.55;;;4.30;99.90;;;;;;5105776;28;20036;-81
2022/01/25 04:20:40;;;;;;;62.55;26.73;;;4.10;99.90;;;;;;5101893;28;20047;-81
2022/01/25 04:25:50;;;;;;;61.15;26.77;;;4.10;99.90;;;;;;5116664;27;20047;-81
2022/01/25 04:28:16;;;;;;;57.47;25.77;;;4.10;99.90;;;;;;5103216;27;20111;-81
2022/01/25 04:30:43;;;;;;;64.40;26.85;;;4.10;99.90;;;;;;5103333;27;20135;-81
2022/01/25 04:33:23;;;;;;;65.72;27.67;;;4.10;99.90;;;;;;5120275;27;20434;-81
2022/01/25 04:49:31;;;;;;;61.15;25.20;;;4.10;99.90;;;;;;5124112;27;20129;-81
2022/01/25 04:59:43;;;;;;;63.85;26.85;;;4.00;99.90;;;;;;5117040;27;20403;-81
2022/01/25 05:02:27;;;;;;;61.47;25.67;;;4.10;99.90;;;;;;5110111;27;20073;-81
2022/01/25 05:05:02;;;;;;;57.85;24.42;;;4.10;99.90;;;;;;5106075;27;20629;-81
2022/01/25 05:10:15;;;;;;;58.42;25.60;;;4.30;99.90;;;;;;5083969;27;20044;-81
2022/01/25 05:12:45;;;;;;;59.28;25.10;;;4.10;99.90;;;;;;5114574;27;20047;-82
2022/01/25 05:23:17;;;;;;;58.20;24.83;;;4.00;99.90;;;;;;5116336;27;20142;-82
2022/01/25 05:25:43;;;;;;;60.90;26.42;;;4.00;99.90;;;;;;5117652;27;20067;-83
2022/01/25 05:28:09;;;;;;;64.30;26.52;;;4.10;99.90;;;;;;5122062;27;20039;-83
2022/01/25 05:30:34;;;;;;;61.72;25.80;;;4.10;99.90;;;;;;5125184;27;20093;-83
2022/01/25 05:33:00;;;;;;;57.17;25.13;;;4.50;99.90;;;;;;5072415;27;20050;-82
2022/01/25 05:35:26;;;;;;;53.95;24.88;;;4.80;99.90;;;;;;5103945;27;20035;-81
2022/01/25 05:37:52;;;;;;;58.15;24.83;;;4.10;99.90;;;;;;5129738;27;20440;-82
2022/01/25 05:40:28;;;;;;;62.55;26.58;;;4.10;99.90;;;;;;5103893;27;20027;-83
2022/01/25 05:48:20;;;;;;;63.55;26.40;;;4.10;99.90;;;;;;5124485;27;20068;-80
2022/01/25 05:50:46;;;;;;;62.17;26.92;;;5.00;99.90;;;;;;5106206;27;20063;-80
2022/01/25 05:53:12;;;;;;;63.05;25.58;;;4.10;99.90;;;;;;5124968;27;20030;-80
2022/01/25 05:55:37;;;;;;;59.53;25.33;;;4.10;99.90;;;;;;5127215;27;20142;-80
2022/01/25 05:58:03;;;;;;;60.05;25.75;;;4.00;99.90;;;;;;5103769;28;20043;-80
2022/01/25 06:00:29;;;;;;;57.05;24.27;;;4.00;99.90;;;;;;5127208;27;20038;-80
2022/01/25 06:02:56;;;;;;;62.33;25.25;;;4.00;99.90;;;;;;5124068;27;20034;-80
2022/01/25 06:05:23;;;;;;;60.33;27.30;;;4.00;99.90;;;;;;5121908;27;20050;-81
2022/01/25 06:07:52;;;;;;;61.72;25.67;;;4.00;99.90;;;;;;5122497;27;20042;-81
2022/01/25 06:10:18;;;;;;;63.33;26.48;;;4.10;99.90;;;;;;5120543;27;20031;-80
2022/01/25 06:12:45;;;;;;;62.25;25.83;;;4.10;99.90;;;;;;5123661;27;20501;-81
2022/01/25 06:15:14;;;;;;;60.28;25.42;;;5.60;99.90;;;;;;5124714;27;20492;-81
2022/01/25 06:17:41;;;;;;;58.20;23.60;;;4.00;99.90;;;;;;5106986;27;20428;-80
2022/01/25 06:20:07;;;;;;;61.45;25.83;;;4.10;99.90;;;;;;5126964;27;20046;-80
2022/01/25 06:22:33;;;;;;;58.83;25.27;;;4.10;99.90;;;;;;5124542;27;20069;-80
2022/01/25 06:24:59;;;;;;;65.70;26.60;;;4.00;99.90;;;;;;5124461;27;20066;-81
2022/01/25 06:27:25;;;;;;;59.38;25.85;;;4.00;99.90;;;;;;5123787;27;20117;-80
2022/01/25 06:29:51;;;;;;;60.83;26.15;;;4.00;99.90;;;;;;5103829;27;20042;-80
2022/01/25 06:32:19;;;;;;;59.30;25.17;;;4.40;99.90;;;;;;5119986;27;20057;-80
2022/01/25 06:34:45;;;;;;;60.90;25.08;;;4.00;99.90;;;;;;5124373;27;20047;-81
2022/01/25 06:37:12;;;;;;;59.65;24.45;;;4.10;99.90;;;;;;5119635;27;20092;-80
2022/01/25 06:39:39;;;;;;;60.88;26.10;;;4.10;99.90;;;;;;5121916;27;20035;-80
2022/01/25 06:42:06;;;;;;;63.20;26.67;;;4.10;99.90;;;;;;5124414;27;20087;-80
2022/01/25 06:44:34;;;;;;;;;;;4.10;99.90;;;;;;5124255;27;20489;-81
2022/01/25 06:47:00;;;;;;;62.97;26.52;;;4.10;99.90;;;;;;5122779;27;20234;-80
2022/01/25 06:49:26;;;;;;;62.03;25.25;;;4.20;99.90;;;;;;5121794;27;20031;-80
2022/01/25 06:51:51;;;;;;;58.65;25.58;;;5.10;99.90;;;;;;5107297;27;20070;-80
2022/01/25 06:54:17;;;;;;;61.70;25.65;;;4.10;99.90;;;;;;5122928;27;20118;-81
2022/01/25 06:56:43;;;;;;;61.28;25.42;;;4.20;99.90;;;;;;5123567;27;20038;-80
2022/01/25 06:59:09;;;;;;;64.72;25.92;;;4.20;99.90;;;;;;5123684;27;20419;-80
2022/01/25 07:01:35;;;;;;;64.28;26.83;;;4.20;99.90;;;;;;5125022;27;20071;-80
2022/01/25 07:04:00;;;;;;;57.20;24.38;;;4.50;99.90;;;;;;5106853;27;20035;-81
2022/01/25 07:06:26;;;;;;;60.13;25.40;;;4.10;99.90;;;;;;5125112;27;20462;-80
2022/01/25 07:08:53;;;;;;;61.20;26.27;;;4.10;99.90;;;;;;5122607;27;20035;-80
2022/01/25 07:11:18;;;;;;;64.13;28.15;;;4.20;99.90;;;;;;5108166;27;20049;-80
2022/01/25 07:13:46;;;;;;;63.45;27.13;;;4.20;99.90;;;;;;5107562;27;20558;-80
2022/01/25 07:16:11;;;;;;;63.95;26.40;;;4.60;99.90;;;;;;5120975;27;20139;-81
2022/01/25 07:18:40;;;;;;;60.70;26.13;;;4.20;99.90;;;;;;5121062;27;20106;-80
2022/01/25 07:21:05;;;;;;;62.83;26.65;;;4.10;99.90;;;;;;5123748;27;20281;-81
2022/01/25 07:23:31;;;;;;;65.03;26.75;;;4.10;99.90;;;;;;5123250;27;20083;-80
2022/01/25 07:25:57;;;;;;;61.35;24.98;;;4.20;99.90;;;;;;5121399;27;20776;-80
2022/01/25 07:28:23;;;;;;;62.30;26.13;;;4.30;99.90;;;;;;5106564;27;20031;-80
2022/01/25 07:30:49;;;;;;;65.32;26.50;;;4.20;99.90;;;;;;5123792;27;20358;-80
2022/01/25 07:33:15;;;;;;;60.10;24.83;;;4.70;99.90;;;;;;5124559;27;20106;-80
2022/01/25 07:35:41;;;;;;;62.60;26.63;;;4.20;99.90;;;;;;5106455;27;20042;-81
2022/01/25 07:38:08;;;;;;;68.70;27.30;;;4.10;99.90;;;;;;5123791;27;20082;-80
2022/01/25 07:40:35;;;;;;;68.55;27.25;;;4.10;99.90;;;;;;5111534;27;20035;-80
2022/01/25 07:43:07;;;;;;;63.63;27.80;;;5.00;99.90;;;;;;5108626;27;20050;-80
2022/01/25 07:45:35;;;;;;;65.88;26.75;;;4.20;99.90;;;;;;5126211;27;20042;-81
2022/01/25 07:48:06;;;;;;;63.05;26.65;;;4.20;99.90;;;;;;5109932;27;20050;-80
2022/01/25 07:50:32;;;;;;;64.28;25.98;;;4.10;99.90;;;;;;5128784;27;20055;-81
2022/01/25 07:52:58;;;;;;;68.47;27.58;;;4.10;99.90;;;;;;5129228;27;20055;-81
2022/01/25 07:55:23;;;;;;;61.22;26.05;;;4.10;99.90;;;;;;5126616;27;20039;-80
2022/01/25 07:57:49;;;;;;;67.32;27.75;;;4.10;99.90;;;;;;5126599;27;20076;-80
2022/01/25 08:00:15;;;;;;;67.33;27.27;;;4.20;99.90;;;;;;5109471;27;20545;-80
2022/01/25 08:02:42;;;;;;;63.90;26.40;;;4.10;99.90;;;;;;5109743;27;20283;-80
2022/01/25 08:05:08;;;;;;;62.58;26.85;;;4.10;99.90;;;;;;5127010;27;20043;-81
2022/01/25 08:07:34;;;;;;;69.45;28.52;;;4.10;99.90;;;;;;5108956;27;20062;-80
2022/01/25 08:09:59;;;;;;;67.43;27.30;;;4.10;99.90;;;;;;5126938;27;20440;-80
2022/01/25 08:12:25;;;;;;;69.10;27.23;;;4.10;99.90;;;;;;5127446;27;20043;-81
2022/01/25 08:14:53;;;;;;;62.65;26.00;;;4.10;99.90;;;;;;5108023;27;20406;-80
2022/01/25 08:17:18;;;;;;;66.82;27.38;;;4.10;99.90;;;;;;5125811;27;20047;-80
2022/01/25 08:19:44;;;;;;;63.35;27.45;;;4.30;99.90;;;;;;5126179;27;20048;-80
2022/01/25 08:22:11;;;;;;;65.70;27.23;;;4.10;99.90;;;;;;5126971;27;20554;-81
2022/01/25 08:24:40;;;;;;;66.65;27.60;;;4.10;99.90;;;;;;5123324;27;20038;-80
2022/01/25 08:27:06;;;;;;;63.88;26.63;;;4.10;99.90;;;;;;5126522;27;20456;-80
2022/01/25 08:29:31;;;;;;;68.68;27.05;;;4.10;99.90;;;;;;5127693;27;20042;-80
2022/01/25 08:31:57;;;;;;;68.13;27.30;;;4.10;99.90;;;;;;5123335;27;20083;-80
2022/01/25 08:34:23;;;;;;;70.55;28.85;;;4.10;99.90;;;;;;5125829;27;20043;-80
2022/01/25 08:36:49;;;;;;;72.37;29.40;;;4.10;99.90;;;;;;5110995;27;20045;-80
2022/01/25 08:39:14;;;;;;;71.82;27.83;;;4.10;99.90;;;;;;5109041;27;20334;-80
2022/01/25 08:41:40;;;;;;;70.00;27.65;;;4.10;99.90;;;;;;5125937;27;20035;-80
2022/01/25 08:44:06;;;;;;;68.32;27.45;;;4.10;99.90;;;;;;5128601;27;20071;-80
2022/01/25 08:46:32;;;;;;;71.22;26.92;;;4.10;99.90;;;;;;5125576;27;20100;-80
2022/01/25 08:48:58;;;;;;;65.95;27.33;;;4.10;99.90;;;;;;5125560;27;20109;-80
2022/01/25 08:51:24;;;;;;;67.00;27.20;;;4.60;99.90;;;;;;5126234;27;20491;-80
2022/01/25 08:53:50;;;;;;;71.07;29.13;;;4.10;99.90;;;;;;5108022;27;20050;-80
2022/01/25 08:56:16;;;;;;;71.65;28.05;;;4.20;99.90;;;;;;5123088;27;20043;-80
2022/01/25 08:58:42;;;;;;;67.43;27.80;;;4.20;99.90;;;;;;5125747;27;20110;-80
2022/01/25 09:01:08;;;;;;;66.40;28.75;;;4.20;99.90;;;;;;5125914;27;20034;-80
2022/01/25 09:03:33;;;;;;;64.93;26.75;;;4.20;99.90;;;;;;5125178;27;20038;-80
2022/01/25 09:05:59;;;;;;;69.57;26.93;;;4.20;99.90;;;;;;5125755;27;20410;-80
2022/01/25 09:08:28;;;;;;;71.20;27.77;;;4.20;99.90;;;;;;5125325;27;20295;-80
2022/01/25 09:10:58;;;;;;;69.25;27.48;;;4.40;99.90;;;;;;5107173;27;20869;-80
2022/01/25 09:13:24;;;;;;;67.45;26.77;;;4.20;99.90;;;;;;5125155;27;20043;-80
2022/01/25 09:15:50;;;;;;;;;;;4.20;99.90;;;;;;5122784;27;20080;-81
2022/01/25 09:18:17;;;;;;;68.78;27.20;;;4.20;99.90;;;;;;5125418;27;20003;-80
2022/01/25 09:20:43;;;;;;;;;;;4.20;99.90;;;;;;5107729;27;20042;-80
2022/01/25 09:23:08;;;;;;;72.97;29.25;;;4.20;99.90;;;;;;5119629;27;20290;-80
2022/01/25 09:25:35;;;;;;;72.10;28.27;;;4.20;99.90;;;;;;5125470;27;20043;-80
2022/01/25 09:28:03;;;;;;;69.90;28.90;;;4.20;99.90;;;;;;5125129;27;20127;-80
2022/01/25 09:30:30;;;;;;;63.35;27.20;;;4.50;99.90;;;;;;5119551;27;20043;-80
2022/01/25 09:32:57;;;;;;;68.22;27.05;;;4.50;99.90;;;;;;5122601;27;20054;-80
2022/01/25 09:35:23;;;;;;;68.13;28.88;;;4.20;99.90;;;;;;5124515;27;20437;-80
2022/01/25 09:37:49;;;;;;;70.65;28.48;;;4.20;99.90;;;;;;5124744;27;20039;-80
2022/01/25 09:40:15;;;;;;;70.68;27.80;;;4.20;99.90;;;;;;5127261;27;20364;-80
2022/01/25 09:42:42;;;;;;;62.92;27.42;;;4.30;99.90;;;;;;5125279;27;20546;-80
2022/01/25 09:45:08;;;;;;;69.28;28.55;;;4.30;99.90;;;;;;5124417;27;20501;-80
2022/01/25 09:47:36;;;;;;;65.50;26.85;;;4.30;99.90;;;;;;5126747;27;20031;-81
2022/01/25 09:50:06;;;;;;;70.35;27.92;;;4.30;99.90;;;;;;5124046;27;20046;-80
2022/01/25 09:52:32;;;;;;;66.90;27.50;;;4.30;99.90;;;;;;5124188;27;20420;-81
2022/01/25 09:55:02;;;;;;;68.35;28.23;;;4.40;99.90;;;;;;5124131;27;20047;-80
2022/01/25 09:57:28;;;;;;;64.68;26.55;;;4.30;99.90;;;;;;5124065;27;20070;-80
2022/01/25 09:59:56;;;;;;;69.15;28.52;;;4.30;99.90;;;;;;5124250;27;20062;-80
2022/01/25 10:02:44;;;;;;;70.03;27.50;;;4.30;99.90;;;;;;5109643;27;20039;-80
2022/01/25 10:05:27;;;;;;;69.28;27.92;;;4.30;99.90;;;;;;5121514;27;20118;-81
2022/01/25 10:08:16;;;;;;;67.38;27.42;;;4.30;99.90;;;;;;5117141;27;20051;-80
2022/01/25 10:10:48;;;;;;;70.32;28.10;;;4.30;99.90;;;;;;5104017;27;20114;-80
2022/01/25 10:13:24;;;;;;;72.13;27.17;;;4.30;99.90;;;;;;5126979;27;20049;-80
2022/01/25 10:15:56;;;;;;;71.63;28.50;;;4.30;99.90;;;;;;5108637;27;20043;-80
2022/01/25 10:18:22;;;;;;;68.05;27.98;;;4.30;99.90;;;;;;5124475;27;20103;-80
2022/01/25 10:20:51;;;;;;;72.78;27.75;;;4.40;99.90;;;;;;5124372;27;20035;-81
2022/01/25 10:23:22;;;;;;;70.22;28.05;;;4.30;99.90;;;;;;5126012;27;20043;-81
2022/01/25 10:25:49;;;;;;;69.97;27.17;;;4.30;99.90;;;;;;5124290;27;20038;-80
2022/01/25 10:28:21;;;;;;;65.47;26.65;;;4.40;99.90;;;;;;5126823;27;20042;-80
2022/01/25 10:30:53;;;;;;;67.55;27.80;;;4.90;99.90;;;;;;5105042;27;20059;-80
2022/01/25 10:33:28;;;;;;;66.63;27.73;;;4.40;99.90;;;;;;5125986;27;20131;-81
2022/01/25 10:35:56;;;;;;;69.55;29.13;;;4.90;99.90;;;;;;5140678;27;20076;-80
2022/01/25 10:38:31;;;;;;;68.80;28.10;;;4.40;99.90;;;;;;5107423;27;20397;-81
2022/01/25 10:41:00;;;;;;;71.55;28.13;;;4.40;99.90;;;;;;5121917;28;20047;-81
2022/01/25 10:43:28;;;;;;;76.65;28.33;;;4.50;99.90;;;;;;5120931;27;20055;-81
2022/01/25 10:46:12;;;;;;;66.28;27.65;;;4.90;99.90;;;;;;5123863;27;20050;-81
2022/01/25 10:48:41;;;;;;;70.60;28.25;;;4.50;99.90;;;;;;5121610;27;20050;-80
2022/01/25 10:51:13;;;;;;;61.20;25.60;;;4.50;99.90;;;;;;5120540;27;20035;-80
2022/01/25 10:53:40;;;;;;;67.85;26.67;;;4.50;99.90;;;;;;5122178;27;20482;-81
2022/01/25 10:56:07;;;;;;;65.00;27.60;;;4.50;99.90;;;;;;5122622;27;20390;-80
2022/01/25 10:58:42;;;;;;;67.53;26.90;;;4.50;99.90;;;;;;5122341;27;20042;-80
2022/01/25 11:01:12;;;;;;;73.55;27.95;;;4.50;99.90;;;;;;5116856;27;20035;-80
2022/01/25 11:03:41;;;;;;;72.38;27.65;;;4.50;99.90;;;;;;5117228;27;20555;-80
2022/01/25 11:06:20;;;;;;;68.22;27.70;;;4.50;99.90;;;;;;5121529;27;20497;-81
2022/01/25 11:08:49;;;;;;;70.03;28.65;;;4.50;99.90;;;;;;5119954;27;20039;-80
2022/01/25 11:11:27;;;;;;;61.72;26.60;;;4.50;99.90;;;;;;5123454;27;20035;-80
2022/01/25 11:13:54;;;;;;;71.80;27.08;;;4.50;99.90;;;;;;5125853;27;20497;-81
2022/01/25 11:16:20;;;;;;;74.90;28.45;;;4.50;99.90;;;;;;5105974;27;20090;-80
2022/01/25 11:18:46;;;;;;;66.35;28.27;;;4.50;99.90;;;;;;5129842;27;20038;-81
2022/01/25 11:21:13;;;;;;;65.78;27.50;;;4.50;99.90;;;;;;5127292;27;20039;-81
2022/01/25 11:23:41;;;;;;;72.25;28.88;;;4.50;99.90;;;;;;5122257;27;20031;-81
2022/01/25 11:26:09;;;;;;;76.13;28.08;;;4.60;99.90;;;;;;5127167;27;20039;-81
2022/01/25 11:28:38;;;;;;;72.05;28.20;;;4.60;99.90;;;;;;5129993;27;20481;-80
2022/01/25 11:31:13;;;;;;;66.85;26.33;;;4.60;99.90;;;;;;5121991;27;20042;-80
2022/01/25 11:33:47;;;;;;;65.97;26.40;;;4.60;99.90;;;;;;5110003;27;20434;-80
2022/01/25 11:36:13;;;;;;;75.97;27.70;;;5.10;99.90;;;;;;5125395;27;20050;-81
2022/01/25 11:38:52;;;;;;;70.45;28.17;;;5.30;99.90;;;;;;5113450;27;20039;-81
2022/01/25 11:41:22;;;;;;;75.47;27.92;;;4.50;99.90;;;;;;5120275;27;20035;-81
2022/01/25 11:44:17;;;;;;;72.53;29.25;;;4.50;99.90;;;;;;5110204;27;20474;-80
2022/01/25 11:46:48;;;;;;;71.25;27.92;;;4.50;99.90;;;;;;5125002;27;20051;-81
2022/01/25 11:49:20;;;;;;;73.03;28.48;;;4.60;99.90;;;;;;5110156;27;20493;-80
2022/01/25 11:52:13;;;;;;;69.95;27.75;;;4.60;99.90;;;;;;5124098;27;20068;-81
2022/01/25 11:54:40;;;;;;;71.22;28.63;;;4.70;99.90;;;;;;5123268;27;20047;-80
2022/01/25 11:57:19;;;;;;;72.10;27.88;;;4.50;99.90;;;;;;5123961;27;20095;-80
2022/01/25 11:59:59;;;;;;;69.90;27.13;;;4.60;99.90;;;;;;5124203;27;20046;-80
2022/01/25 12:02:44;;;;;;;70.45;27.63;;;4.60;99.90;;;;;;5128509;27;20049;-81
2022/01/25 12:05:12;;;;;;;67.00;26.73;;;4.60;99.90;;;;;;5118912;27;20490;-81
2022/01/25 12:07:41;;;;;;;67.30;27.15;;;4.60;99.90;;;;;;5124126;27;20038;-81
2022/01/25 12:10:35;;;;;;;72.93;29.00;;;4.60;99.90;;;;;;5124094;27;20092;-80
2022/01/25 12:13:28;;;;;;;69.85;27.90;;;4.60;99.90;;;;;;5123651;27;20038;-81
2022/01/25 12:16:22;;;;;;;75.00;28.75;;;4.60;99.90;;;;;;5126747;27;20090;-80
2022/01/25 12:19:00;;;;;;;69.70;28.20;;;4.60;99.90;;;;;;5124025;27;20143;-80
2022/01/25 12:21:44;;;;;;;64.90;26.88;;;4.60;99.90;;;;;;5131762;27;20119;-81
2022/01/25 12:24:36;;;;;;;72.85;27.45;;;4.60;99.90;;;;;;5126214;27;20062;-80
2022/01/25 12:29:47;;;;;;;69.50;27.58;;;4.60;99.90;;;;;;5125184;27;20039;-80
2022/01/25 12:32:33;;;;;;;77.57;29.92;;;4.60;99.90;;;;;;5103307;27;20055;-80
2022/01/25 12:35:04;;;;;;;67.13;27.88;;;4.50;99.90;;;;;;5122616;27;20054;-80
2022/01/25 12:37:42;;;;;;;75.40;28.98;;;4.50;99.90;;;;;;5124997;27;20035;-80
2022/01/25 12:40:26;;;;;;;74.82;29.55;;;4.60;99.90;;;;;;5112955;27;20038;-81
2022/01/25 12:42:56;;;;;;;75.22;28.33;;;4.70;99.90;;;;;;5119749;27;20035;-80
2022/01/25 12:45:24;;;;;;;70.22;28.35;;;4.60;99.90;;;;;;5123070;27;20118;-80
2022/01/25 12:48:02;;;;;;;72.30;28.48;;;4.60;99.90;;;;;;5105940;27;20048;-80
2022/01/25 12:50:30;;;;;;;74.13;29.73;;;4.60;99.90;;;;;;5120988;27;20561;-80
2022/01/25 12:52:59;;;;;;;73.20;28.33;;;4.90;99.90;;;;;;5105460;27;20075;-80
2022/01/25 12:55:33;;;;;;;75.00;28.67;;;4.60;99.90;;;;;;5122421;27;20077;-80
2022/01/25 12:57:59;;;;;;;68.70;28.38;;;4.60;99.90;;;;;;5121127;27;20046;-80
2022/01/25 13:00:36;;;;;;;72.72;28.92;;;4.60;99.90;;;;;;5121462;27;20035;-81
2022/01/25 13:03:27;;;;;;;70.78;27.90;;;4.60;99.90;;;;;;5122337;27;20031;-81
2022/01/25 13:06:12;;;;;;;69.05;28.45;;;4.60;99.90;;;;;;5119943;27;20042;-81
2022/01/25 13:08:50;;;;;;;72.85;28.42;;;4.60;99.90;;;;;;5099502;27;20043;-81
2022/01/25 13:11:25;;;;;;;70.13;27.17;;;4.60;99.90;;;;;;5113237;27;20103;-81
2022/01/25 13:14:14;;;;;;;79.65;29.15;;;4.60;99.90;;;;;;5116885;27;20047;-81
2022/01/25 13:16:53;;;;;;;71.65;27.73;;;4.60;99.90;;;;;;5119713;27;20478;-80
2022/01/25 13:19:36;;;;;;;75.90;29.70;;;4.60;99.90;;;;;;5100553;27;20032;-81
2022/01/25 13:22:11;;;;;;;73.28;29.73;;;4.60;99.90;;;;;;5117677;27;20090;-81
2022/01/25 13:24:46;;;;;;;77.35;28.73;;;4.60;99.90;;;;;;5121975;27;20399;-81
2022/01/25 13:27:15;;;;;;;77.13;28.80;;;4.70;99.90;;;;;;5094509;27;20040;-80
2022/01/25 13:32:34;;;;;;;69.82;27.58;;;4.60;99.90;;;;;;5116452;27;20498;-81
2022/01/25 13:35:14;;;;;;;75.53;28.90;;;4.60;99.90;;;;;;5103932;28;20497;-80
2022/01/25 13:37:40;;;;;;;66.78;27.55;;;4.60;99.90;;;;;;5118735;27;20035;-81
2022/01/25 13:40:06;;;;;;;;;;;4.60;99.90;;;;;;5104822;27;20043;-81
2022/01/25 13:42:45;;;;;;;72.18;28.15;;;4.60;99.90;;;;;;5121793;27;19915;-81
2022/01/25 13:48:09;;;;;;;74.35;28.92;;;4.70;99.90;;;;;;5117053;27;20051;-80
2022/01/25 13:50:38;;;;;;;72.50;27.48;;;4.60;99.90;;;;;;5120966;27;20494;-81
2022/01/25 13:53:05;;;;;;;66.38;28.23;;;4.60;99.90;;;;;;5121702;27;20046;-80
2022/01/25 13:55:31;;;;;;;70.03;28.08;;;4.70;99.90;;;;;;5123099;27;20490;-81
2022/01/25 13:57:57;;;;;;;75.03;28.13;;;4.60;99.90;;;;;;5120480;27;20106;-81
2022/01/25 14:00:24;;;;;;;76.43;27.80;;;4.80;99.90;;;;;;5122489;27;20548;-81
2022/01/25 14:02:50;;;;;;;;;;;4.60;99.90;;;;;;5124037;27;20467;-81
2022/01/25 14:05:16;;;;;;;70.63;28.27;;;4.60;99.90;;;;;;5124392;27;20337;-81
2022/01/25 14:07:45;;;;;;;76.75;27.33;;;4.60;99.90;;;;;;5087341;28;20285;-81
2022/01/25 14:10:18;;;;;;;73.70;28.92;;;4.60;99.90;;;;;;5118976;27;20049;-81
2022/01/25 14:23:45;;;;;;;72.68;28.70;;;4.60;99.90;;;;;;5116835;27;20043;-81
2022/01/25 14:26:12;;;;;;;70.07;28.45;;;4.60;99.90;;;;;;5120836;27;20186;-81
2022/01/25 14:28:45;;;;;;;70.65;29.00;;;4.60;99.90;;;;;;5123183;27;20046;-81
2022/01/25 14:31:18;;;;;;;73.18;28.60;;;4.60;99.90;;;;;;5119930;28;20062;-80
2022/01/25 14:33:59;;;;;;;70.25;28.58;;;4.60;99.90;;;;;;5122695;27;20110;-80
2022/01/25 14:36:28;;;;;;;70.35;28.75;;;4.50;99.90;;;;;;5117087;27;20055;-81
2022/01/25 14:38:55;;;;;;;78.57;30.52;;;4.50;99.90;;;;;;5126797;27;20398;-80
2022/01/25 14:41:25;;;;;;;71.93;27.83;;;4.50;99.90;;;;;;5125975;27;20117;-81
2022/01/25 14:43:55;;;;;;;74.30;29.40;;;4.70;99.90;;;;;;5121515;27;20131;-80
2022/01/25 14:46:31;;;;;;;69.10;29.15;;;4.50;99.90;;;;;;5102250;27;20042;-81
2022/01/25 14:48:59;;;;;;;79.27;31.00;;;4.50;99.90;;;;;;5121221;28;20051;-81
2022/01/25 14:51:58;;;;;;;73.70;28.83;;;4.50;99.90;;;;;;5125690;27;20342;-81
2022/01/25 14:54:30;;;;;;;84.32;32.60;;;4.50;99.90;;;;;;5126243;27;20047;-81
2022/01/25 14:57:01;;;;;;;79.78;30.17;;;4.40;99.90;;;;;;5123861;27;20481;-81
2022/01/25 14:59:31;;;;;;;80.50;31.60;;;4.40;99.90;;;;;;5127562;27;20131;-81
2022/01/25 15:02:02;;;;;;;73.40;29.15;;;4.40;99.90;;;;;;5115222;27;20044;-81